sensor_id;sensor_type;location;lat;lon;timestamp;P1;durP1;ratioP1;P2;durP2;ratioP2
37131;SDS011;23035;50.032;21.978;2024-03-29T00:01:38;7.38;;;2.78;;
37131;SDS011;23035;50.032;21.978;2024-03-29T00:06:40;11.90;;;2.92;;
37131;SDS011;23035;50.032;21.978;2024-03-29T00:11:43;5.55;;;2.47;;
37131;SDS011;23035;50.032;21.978;2024-03-29T00:16:45;6.50;;;2.97;;
37131;SDS011;23035;50.032;21.978;2024-03-29T00:21:47;6.35;;;4.10;;
37131;SDS011;23035;50.032;21.978;2024-03-29T00:26:51;5.95;;;3.70;;
37131;SDS011;23035;50.032;21.978;2024-03-29T00:31:53;5.35;;;4.82;;
37131;SDS011;23035;50.032;21.978;2024-03-29T00:36:55;8.88;;;6.10;;
37131;SDS011;23035;50.032;21.978;2024-03-29T00:41:58;6.50;;;5.88;;
37131;SDS011;23035;50.032;21.978;2024-03-29T00:47:00;7.78;;;7.18;;
37131;SDS011;23035;50.032;21.978;2024-03-29T00:52:03;13.20;;;12.20;;
37131;SDS011;23035;50.032;21.978;2024-03-29T00:57:08;13.10;;;12.10;;
37131;SDS011;23035;50.032;21.978;2024-03-29T01:02:10;13.30;;;12.40;;
37131;SDS011;23035;50.032;21.978;2024-03-29T01:07:13;12.07;;;11.27;;
37131;SDS011;23035;50.032;21.978;2024-03-29T01:12:17;11.60;;;10.77;;
37131;SDS011;23035;50.032;21.978;2024-03-29T01:17:19;10.35;;;9.55;;
37131;SDS011;23035;50.032;21.978;2024-03-29T01:22:22;9.02;;;8.32;;
37131;SDS011;23035;50.032;21.978;2024-03-29T01:27:39;7.53;;;6.93;;
37131;SDS011;23035;50.032;21.978;2024-03-29T01:32:47;7.30;;;6.70;;
37131;SDS011;23035;50.032;21.978;2024-03-29T01:37:49;8.57;;;7.78;;
37131;SDS011;23035;50.032;21.978;2024-03-29T01:42:54;13.57;;;8.90;;
37131;SDS011;23035;50.032;21.978;2024-03-29T01:47:57;15.02;;;9.35;;
37131;SDS011;23035;50.032;21.978;2024-03-29T01:53:01;9.10;;;8.20;;
37131;SDS011;23035;50.032;21.978;2024-03-29T01:58:06;6.50;;;5.78;;
37131;SDS011;23035;50.032;21.978;2024-03-29T02:03:11;6.63;;;4.85;;
37131;SDS011;23035;50.032;21.978;2024-03-29T02:08:16;4.15;;;3.78;;
37131;SDS011;23035;50.032;21.978;2024-03-29T02:13:21;4.10;;;3.72;;
37131;SDS011;23035;50.032;21.978;2024-03-29T02:18:24;3.87;;;3.23;;
37131;SDS011;23035;50.032;21.978;2024-03-29T02:23:29;4.28;;;2.85;;
37131;SDS011;23035;50.032;21.978;2024-03-29T02:28:37;3.80;;;3.50;;
37131;SDS011;23035;50.032;21.978;2024-03-29T02:33:40;4.88;;;3.45;;
37131;SDS011;23035;50.032;21.978;2024-03-29T02:38:44;4.00;;;3.70;;
37131;SDS011;23035;50.032;21.978;2024-03-29T02:43:49;3.78;;;3.47;;
37131;SDS011;23035;50.032;21.978;2024-03-29T02:48:53;3.92;;;3.38;;
37131;SDS011;23035;50.032;21.978;2024-03-29T02:54:40;3.60;;;3.30;;
37131;SDS011;23035;50.032;21.978;2024-03-29T03:00:57;3.60;;;3.30;;
37131;SDS011;23035;50.032;21.978;2024-03-29T03:26:27;3.30;;;3.00;;
37131;SDS011;23035;50.032;21.978;2024-03-29T03:31:48;3.63;;;3.22;;
37131;SDS011;23035;50.032;21.978;2024-03-29T03:43:08;2.05;;;1.90;;
37131;SDS011;23035;50.032;21.978;2024-03-29T03:53:15;2.67;;;2.20;;
37131;SDS011;23035;50.032;21.978;2024-03-29T03:58:20;1.70;;;1.60;;
37131;SDS011;23035;50.032;21.978;2024-03-29T04:03:23;2.28;;;1.92;;
37131;SDS011;23035;50.032;21.978;2024-03-29T04:08:27;5.03;;;2.33;;
37131;SDS011;23035;50.032;21.978;2024-03-29T04:13:32;3.47;;;1.90;;
37131;SDS011;23035;50.032;21.978;2024-03-29T04:18:35;3.75;;;2.15;;
37131;SDS011;23035;50.032;21.978;2024-03-29T04:23:38;4.07;;;1.90;;
37131;SDS011;23035;50.032;21.978;2024-03-29T04:28:43;6.15;;;2.17;;
37131;SDS011;23035;50.032;21.978;2024-03-29T04:33:46;6.43;;;2.80;;
37131;SDS011;23035;50.032;21.978;2024-03-29T04:38:50;4.35;;;2.67;;
37131;SDS011;23035;50.032;21.978;2024-03-29T04:43:54;7.82;;;2.78;;
37131;SDS011;23035;50.032;21.978;2024-03-29T04:48:58;5.63;;;2.88;;
37131;SDS011;23035;50.032;21.978;2024-03-29T04:54:01;5.15;;;3.00;;
37131;SDS011;23035;50.032;21.978;2024-03-29T04:59:06;5.47;;;3.60;;
37131;SDS011;23035;50.032;21.978;2024-03-29T05:04:10;6.10;;;3.20;;
37131;SDS011;23035;50.032;21.978;2024-03-29T05:09:14;7.18;;;3.20;;
37131;SDS011;23035;50.032;21.978;2024-03-29T05:14:19;4.28;;;2.60;;
37131;SDS011;23035;50.032;21.978;2024-03-29T05:19:24;5.32;;;2.70;;
37131;SDS011;23035;50.032;21.978;2024-03-29T05:24:27;10.80;;;3.70;;
37131;SDS011;23035;50.032;21.978;2024-03-29T05:29:31;18.50;;;8.80;;
37131;SDS011;23035;50.032;21.978;2024-03-29T05:34:35;16.95;;;8.18;;
37131;SDS011;23035;50.032;21.978;2024-03-29T05:39:38;18.80;;;8.45;;
37131;SDS011;23035;50.032;21.978;2024-03-29T05:44:43;13.38;;;7.05;;
37131;SDS011;23035;50.032;21.978;2024-03-29T05:49:47;12.45;;;6.25;;
37131;SDS011;23035;50.032;21.978;2024-03-29T05:54:51;7.53;;;3.42;;
37131;SDS011;23035;50.032;21.978;2024-03-29T05:59:57;3.25;;;2.35;;
37131;SDS011;23035;50.032;21.978;2024-03-29T06:05:01;4.00;;;2.05;;
37131;SDS011;23035;50.032;21.978;2024-03-29T06:10:05;8.35;;;1.80;;
37131;SDS011;23035;50.032;21.978;2024-03-29T06:15:11;3.67;;;2.00;;
37131;SDS011;23035;50.032;21.978;2024-03-29T06:20:32;5.20;;;2.50;;
37131;SDS011;23035;50.032;21.978;2024-03-29T06:25:35;2.58;;;1.85;;
37131;SDS011;23035;50.032;21.978;2024-03-29T06:30:43;3.03;;;1.80;;
37131;SDS011;23035;50.032;21.978;2024-03-29T06:35:52;4.13;;;2.10;;
37131;SDS011;23035;50.032;21.978;2024-03-29T06:40:56;2.92;;;2.22;;
37131;SDS011;23035;50.032;21.978;2024-03-29T06:46:01;3.63;;;2.28;;
37131;SDS011;23035;50.032;21.978;2024-03-29T06:51:06;3.67;;;1.63;;
37131;SDS011;23035;50.032;21.978;2024-03-29T06:56:10;5.28;;;1.90;;
37131;SDS011;23035;50.032;21.978;2024-03-29T07:01:14;2.50;;;1.60;;
37131;SDS011;23035;50.032;21.978;2024-03-29T07:06:18;4.07;;;2.35;;
37131;SDS011;23035;50.032;21.978;2024-03-29T07:11:21;4.15;;;1.85;;
37131;SDS011;23035;50.032;21.978;2024-03-29T07:16:29;3.05;;;1.30;;
37131;SDS011;23035;50.032;21.978;2024-03-29T07:21:32;5.38;;;1.80;;
37131;SDS011;23035;50.032;21.978;2024-03-29T07:26:35;5.50;;;1.60;;
37131;SDS011;23035;50.032;21.978;2024-03-29T07:31:40;3.42;;;1.55;;
37131;SDS011;23035;50.032;21.978;2024-03-29T07:36:44;4.20;;;1.60;;
37131;SDS011;23035;50.032;21.978;2024-03-29T07:41:47;5.47;;;1.50;;
37131;SDS011;23035;50.032;21.978;2024-03-29T07:46:52;3.50;;;1.70;;
37131;SDS011;23035;50.032;21.978;2024-03-29T07:51:55;4.10;;;1.80;;
37131;SDS011;23035;50.032;21.978;2024-03-29T07:56:58;5.10;;;2.10;;
37131;SDS011;23035;50.032;21.978;2024-03-29T08:02:04;4.03;;;1.60;;
37131;SDS011;23035;50.032;21.978;2024-03-29T08:07:08;4.10;;;1.70;;
37131;SDS011;23035;50.032;21.978;2024-03-29T08:12:13;4.63;;;1.60;;
37131;SDS011;23035;50.032;21.978;2024-03-29T08:17:18;4.03;;;1.80;;
37131;SDS011;23035;50.032;21.978;2024-03-29T08:22:21;3.90;;;2.00;;
37131;SDS011;23035;50.032;21.978;2024-03-29T08:27:25;7.22;;;1.90;;
37131;SDS011;23035;50.032;21.978;2024-03-29T08:32:31;1.92;;;1.30;;
37131;SDS011;23035;50.032;21.978;2024-03-29T08:42:39;2.60;;;1.85;;
37131;SDS011;23035;50.032;21.978;2024-03-29T08:47:47;2.92;;;1.63;;
37131;SDS011;23035;50.032;21.978;2024-03-29T08:52:50;3.20;;;1.70;;
37131;SDS011;23035;50.032;21.978;2024-03-29T08:57:54;3.58;;;1.50;;
37131;SDS011;23035;50.032;21.978;2024-03-29T09:02:59;2.25;;;1.55;;
37131;SDS011;23035;50.032;21.978;2024-03-29T09:08:03;5.85;;;1.60;;
37131;SDS011;23035;50.032;21.978;2024-03-29T09:13:07;4.35;;;2.75;;
37131;SDS011;23035;50.032;21.978;2024-03-29T09:18:12;1.75;;;1.40;;
37131;SDS011;23035;50.032;21.978;2024-03-29T09:23:26;3.10;;;2.10;;
37131;SDS011;23035;50.032;21.978;2024-03-29T09:28:30;1.60;;;1.35;;
37131;SDS011;23035;50.032;21.978;2024-03-29T09:33:37;3.60;;;1.00;;
37131;SDS011;23035;50.032;21.978;2024-03-29T09:38:40;5.57;;;1.50;;
37131;SDS011;23035;50.032;21.978;2024-03-29T09:43:44;5.13;;;1.40;;
37131;SDS011;23035;50.032;21.978;2024-03-29T09:48:50;1.33;;;1.20;;
37131;SDS011;23035;50.032;21.978;2024-03-29T09:53:55;13.90;;;1.60;;
37131;SDS011;23035;50.032;21.978;2024-03-29T09:59:00;1.30;;;1.07;;
37131;SDS011;23035;50.032;21.978;2024-03-29T10:04:06;1.50;;;1.13;;
37131;SDS011;23035;50.032;21.978;2024-03-29T10:09:22;3.38;;;1.20;;
37131;SDS011;23035;50.032;21.978;2024-03-29T10:14:44;3.40;;;1.05;;
37131;SDS011;23035;50.032;21.978;2024-03-29T10:19:53;2.17;;;1.13;;
37131;SDS011;23035;50.032;21.978;2024-03-29T10:25:01;1.15;;;0.80;;
37131;SDS011;23035;50.032;21.978;2024-03-29T10:30:06;2.42;;;1.23;;
37131;SDS011;23035;50.032;21.978;2024-03-29T10:35:12;6.30;;;1.20;;
37131;SDS011;23035;50.032;21.978;2024-03-29T10:40:16;1.63;;;0.90;;
37131;SDS011;23035;50.032;21.978;2024-03-29T10:45:20;3.47;;;1.40;;
37131;SDS011;23035;50.032;21.978;2024-03-29T10:50:27;4.10;;;0.90;;
37131;SDS011;23035;50.032;21.978;2024-03-29T10:55:33;2.55;;;1.25;;
37131;SDS011;23035;50.032;21.978;2024-03-29T11:00:38;2.50;;;1.20;;
37131;SDS011;23035;50.032;21.978;2024-03-29T11:05:46;1.75;;;1.00;;
37131;SDS011;23035;50.032;21.978;2024-03-29T11:10:51;2.35;;;1.02;;
37131;SDS011;23035;50.032;21.978;2024-03-29T11:15:57;1.80;;;0.98;;
37131;SDS011;23035;50.032;21.978;2024-03-29T11:21:03;9.03;;;1.10;;
37131;SDS011;23035;50.032;21.978;2024-03-29T11:26:11;1.33;;;1.17;;
37131;SDS011;23035;50.032;21.978;2024-03-29T11:31:15;1.40;;;1.10;;
37131;SDS011;23035;50.032;21.978;2024-03-29T11:36:21;6.63;;;1.63;;
37131;SDS011;23035;50.032;21.978;2024-03-29T11:41:27;1.50;;;1.20;;
37131;SDS011;23035;50.032;21.978;2024-03-29T11:46:35;1.58;;;1.40;;
37131;SDS011;23035;50.032;21.978;2024-03-29T11:51:41;4.57;;;1.50;;
37131;SDS011;23035;50.032;21.978;2024-03-29T11:56:45;1.73;;;1.00;;
37131;SDS011;23035;50.032;21.978;2024-03-29T12:01:58;4.38;;;1.33;;
37131;SDS011;23035;50.032;21.978;2024-03-29T12:07:04;4.28;;;1.17;;
37131;SDS011;23035;50.032;21.978;2024-03-29T12:12:08;2.42;;;1.27;;
37131;SDS011;23035;50.032;21.978;2024-03-29T12:17:11;1.98;;;1.25;;
37131;SDS011;23035;50.032;21.978;2024-03-29T12:22:16;1.00;;;0.95;;
37131;SDS011;23035;50.032;21.978;2024-03-29T12:27:21;1.50;;;1.40;;
37131;SDS011;23035;50.032;21.978;2024-03-29T12:32:25;1.23;;;1.10;;
37131;SDS011;23035;50.032;21.978;2024-03-29T12:37:30;4.68;;;1.63;;
37131;SDS011;23035;50.032;21.978;2024-03-29T12:47:37;2.30;;;1.10;;
37131;SDS011;23035;50.032;21.978;2024-03-29T12:52:44;2.17;;;1.10;;
37131;SDS011;23035;50.032;21.978;2024-03-29T12:57:47;2.07;;;1.17;;
37131;SDS011;23035;50.032;21.978;2024-03-29T13:02:51;5.32;;;1.20;;
37131;SDS011;23035;50.032;21.978;2024-03-29T13:07:56;1.20;;;1.10;;
37131;SDS011;23035;50.032;21.978;2024-03-29T13:13:02;1.50;;;1.13;;
37131;SDS011;23035;50.032;21.978;2024-03-29T13:18:07;1.73;;;1.25;;
37131;SDS011;23035;50.032;21.978;2024-03-29T13:23:12;2.22;;;1.27;;
37131;SDS011;23035;50.032;21.978;2024-03-29T13:28:16;1.80;;;1.10;;
37131;SDS011;23035;50.032;21.978;2024-03-29T13:33:19;2.35;;;1.08;;
37131;SDS011;23035;50.032;21.978;2024-03-29T13:38:24;1.38;;;1.23;;
37131;SDS011;23035;50.032;21.978;2024-03-29T13:43:28;2.70;;;1.00;;
37131;SDS011;23035;50.032;21.978;2024-03-29T13:48:31;1.52;;;1.00;;
37131;SDS011;23035;50.032;21.978;2024-03-29T13:53:36;1.77;;;1.10;;
37131;SDS011;23035;50.032;21.978;2024-03-29T13:58:39;1.87;;;1.30;;
37131;SDS011;23035;50.032;21.978;2024-03-29T14:03:43;1.65;;;1.40;;
37131;SDS011;23035;50.032;21.978;2024-03-29T14:08:51;2.58;;;1.30;;
37131;SDS011;23035;50.032;21.978;2024-03-29T14:13:55;2.80;;;1.30;;
37131;SDS011;23035;50.032;21.978;2024-03-29T14:18:58;3.55;;;1.13;;
37131;SDS011;23035;50.032;21.978;2024-03-29T14:24:03;2.28;;;1.25;;
37131;SDS011;23035;50.032;21.978;2024-03-29T14:29:07;3.00;;;1.25;;
37131;SDS011;23035;50.032;21.978;2024-03-29T14:34:13;6.63;;;1.60;;
37131;SDS011;23035;50.032;21.978;2024-03-29T14:39:17;1.90;;;1.25;;
37131;SDS011;23035;50.032;21.978;2024-03-29T14:44:22;4.28;;;1.50;;
37131;SDS011;23035;50.032;21.978;2024-03-29T14:49:27;2.43;;;1.30;;
37131;SDS011;23035;50.032;21.978;2024-03-29T14:54:31;4.80;;;1.38;;
37131;SDS011;23035;50.032;21.978;2024-03-29T14:59:34;1.80;;;1.20;;
37131;SDS011;23035;50.032;21.978;2024-03-29T15:04:38;2.38;;;1.33;;
37131;SDS011;23035;50.032;21.978;2024-03-29T15:09:42;1.90;;;1.20;;
37131;SDS011;23035;50.032;21.978;2024-03-29T15:14:46;4.03;;;1.70;;
37131;SDS011;23035;50.032;21.978;2024-03-29T15:19:49;4.97;;;1.60;;
37131;SDS011;23035;50.032;21.978;2024-03-29T15:25:03;3.22;;;1.55;;
37131;SDS011;23035;50.032;21.978;2024-03-29T15:30:07;3.13;;;1.70;;
37131;SDS011;23035;50.032;21.978;2024-03-29T15:35:10;8.90;;;1.58;;
37131;SDS011;23035;50.032;21.978;2024-03-29T15:40:24;5.30;;;2.08;;
37131;SDS011;23035;50.032;21.978;2024-03-29T15:45:27;5.47;;;2.03;;
37131;SDS011;23035;50.032;21.978;2024-03-29T15:51:03;3.28;;;1.73;;
37131;SDS011;23035;50.032;21.978;2024-03-29T15:56:08;4.20;;;2.00;;
37131;SDS011;23035;50.032;21.978;2024-03-29T16:01:17;4.97;;;1.80;;
37131;SDS011;23035;50.032;21.978;2024-03-29T16:06:21;3.28;;;2.20;;
37131;SDS011;23035;50.032;21.978;2024-03-29T16:11:26;7.07;;;2.00;;
37131;SDS011;23035;50.032;21.978;2024-03-29T16:16:40;3.90;;;1.85;;
37131;SDS011;23035;50.032;21.978;2024-03-29T16:21:50;8.88;;;4.13;;
37131;SDS011;23035;50.032;21.978;2024-03-29T16:27:01;5.47;;;2.67;;
37131;SDS011;23035;50.032;21.978;2024-03-29T16:32:06;5.07;;;2.22;;
37131;SDS011;23035;50.032;21.978;2024-03-29T16:37:10;5.47;;;2.60;;
37131;SDS011;23035;50.032;21.978;2024-03-29T16:47:36;5.70;;;2.50;;
37131;SDS011;23035;50.032;21.978;2024-03-29T16:52:39;4.43;;;2.60;;
37131;SDS011;23035;50.032;21.978;2024-03-29T16:57:44;4.18;;;2.22;;
37131;SDS011;23035;50.032;21.978;2024-03-29T17:02:47;6.75;;;2.50;;
37131;SDS011;23035;50.032;21.978;2024-03-29T17:07:52;6.22;;;2.72;;
37131;SDS011;23035;50.032;21.978;2024-03-29T17:12:56;8.65;;;2.80;;
37131;SDS011;23035;50.032;21.978;2024-03-29T17:18:00;3.15;;;2.22;;
37131;SDS011;23035;50.032;21.978;2024-03-29T17:23:03;5.25;;;2.40;;
37131;SDS011;23035;50.032;21.978;2024-03-29T17:28:08;4.43;;;2.60;;
37131;SDS011;23035;50.032;21.978;2024-03-29T17:33:11;3.97;;;2.23;;
37131;SDS011;23035;50.032;21.978;2024-03-29T17:38:15;6.30;;;2.22;;
37131;SDS011;23035;50.032;21.978;2024-03-29T17:43:20;5.13;;;2.33;;
37131;SDS011;23035;50.032;21.978;2024-03-29T17:48:23;8.87;;;2.50;;
37131;SDS011;23035;50.032;21.978;2024-03-29T17:53:38;6.63;;;2.25;;
37131;SDS011;23035;50.032;21.978;2024-03-29T17:58:43;6.00;;;2.35;;
37131;SDS011;23035;50.032;21.978;2024-03-29T18:03:46;5.07;;;2.35;;
37131;SDS011;23035;50.032;21.978;2024-03-29T18:08:51;4.03;;;2.20;;
37131;SDS011;23035;50.032;21.978;2024-03-29T18:13:55;5.78;;;2.72;;
37131;SDS011;23035;50.032;21.978;2024-03-29T18:18:58;9.05;;;2.67;;
37131;SDS011;23035;50.032;21.978;2024-03-29T18:24:02;5.15;;;2.88;;
37131;SDS011;23035;50.032;21.978;2024-03-29T18:29:07;8.13;;;2.97;;
37131;SDS011;23035;50.032;21.978;2024-03-29T18:34:10;7.47;;;3.13;;
37131;SDS011;23035;50.032;21.978;2024-03-29T18:39:14;17.52;;;9.85;;
37131;SDS011;23035;50.032;21.978;2024-03-29T18:44:18;9.73;;;3.03;;
37131;SDS011;23035;50.032;21.978;2024-03-29T18:49:21;6.20;;;2.85;;
37131;SDS011;23035;50.032;21.978;2024-03-29T18:54:25;7.82;;;3.22;;
37131;SDS011;23035;50.032;21.978;2024-03-29T18:59:30;9.40;;;3.70;;
37131;SDS011;23035;50.032;21.978;2024-03-29T19:09:38;8.70;;;2.60;;
37131;SDS011;23035;50.032;21.978;2024-03-29T19:19:48;10.13;;;3.30;;
37131;SDS011;23035;50.032;21.978;2024-03-29T19:24:52;9.02;;;3.42;;
37131;SDS011;23035;50.032;21.978;2024-03-29T19:29:56;7.53;;;3.78;;
37131;SDS011;23035;50.032;21.978;2024-03-29T19:34:59;7.35;;;2.97;;
37131;SDS011;23035;50.032;21.978;2024-03-29T19:40:06;10.88;;;2.78;;
37131;SDS011;23035;50.032;21.978;2024-03-29T19:45:26;7.65;;;2.88;;
37131;SDS011;23035;50.032;21.978;2024-03-29T19:50:30;8.23;;;3.38;;
37131;SDS011;23035;50.032;21.978;2024-03-29T19:55:39;6.07;;;2.70;;
37131;SDS011;23035;50.032;21.978;2024-03-29T20:00:43;7.32;;;2.92;;
37131;SDS011;23035;50.032;21.978;2024-03-29T20:05:47;6.27;;;2.63;;
37131;SDS011;23035;50.032;21.978;2024-03-29T20:10:50;10.10;;;3.13;;
37131;SDS011;23035;50.032;21.978;2024-03-29T20:15:55;7.85;;;2.97;;
37131;SDS011;23035;50.032;21.978;2024-03-29T20:20:58;9.18;;;3.38;;
37131;SDS011;23035;50.032;21.978;2024-03-29T20:26:02;9.93;;;3.45;;
37131;SDS011;23035;50.032;21.978;2024-03-29T20:31:09;9.57;;;3.25;;
37131;SDS011;23035;50.032;21.978;2024-03-29T20:36:12;9.20;;;2.80;;
37131;SDS011;23035;50.032;21.978;2024-03-29T20:41:18;8.68;;;3.55;;
37131;SDS011;23035;50.032;21.978;2024-03-29T20:46:22;9.23;;;3.67;;
37131;SDS011;23035;50.032;21.978;2024-03-29T20:51:26;9.48;;;4.00;;
37131;SDS011;23035;50.032;21.978;2024-03-29T20:56:31;11.88;;;4.70;;
37131;SDS011;23035;50.032;21.978;2024-03-29T21:01:35;11.90;;;4.22;;
37131;SDS011;23035;50.032;21.978;2024-03-29T21:07:10;11.57;;;3.72;;
37131;SDS011;23035;50.032;21.978;2024-03-29T21:12:14;7.32;;;3.53;;
37131;SDS011;23035;50.032;21.978;2024-03-29T21:17:18;14.63;;;4.45;;
37131;SDS011;23035;50.032;21.978;2024-03-29T21:22:22;9.20;;;4.13;;
37131;SDS011;23035;50.032;21.978;2024-03-29T21:27:25;11.73;;;3.53;;
37131;SDS011;23035;50.032;21.978;2024-03-29T21:32:30;11.68;;;3.58;;
37131;SDS011;23035;50.032;21.978;2024-03-29T21:42:37;11.77;;;4.32;;
37131;SDS011;23035;50.032;21.978;2024-03-29T21:47:42;8.98;;;4.22;;
37131;SDS011;23035;50.032;21.978;2024-03-29T21:52:45;12.25;;;4.45;;
37131;SDS011;23035;50.032;21.978;2024-03-29T21:57:48;11.00;;;4.47;;
37131;SDS011;23035;50.032;21.978;2024-03-29T22:02:55;11.60;;;4.07;;
37131;SDS011;23035;50.032;21.978;2024-03-29T22:07:58;11.83;;;3.93;;
37131;SDS011;23035;50.032;21.978;2024-03-29T22:13:02;19.10;;;5.93;;
37131;SDS011;23035;50.032;21.978;2024-03-29T22:18:08;11.93;;;4.72;;
37131;SDS011;23035;50.032;21.978;2024-03-29T22:23:11;9.80;;;3.50;;
37131;SDS011;23035;50.032;21.978;2024-03-29T22:28:14;10.43;;;3.60;;
37131;SDS011;23035;50.032;21.978;2024-03-29T22:33:19;10.85;;;3.28;;
37131;SDS011;23035;50.032;21.978;2024-03-29T22:38:24;7.90;;;3.00;;
37131;SDS011;23035;50.032;21.978;2024-03-29T22:43:27;10.10;;;3.25;;
37131;SDS011;23035;50.032;21.978;2024-03-29T22:48:32;10.65;;;3.00;;
37131;SDS011;23035;50.032;21.978;2024-03-29T22:53:35;11.18;;;4.05;;
37131;SDS011;23035;50.032;21.978;2024-03-29T22:58:38;8.18;;;3.22;;
37131;SDS011;23035;50.032;21.978;2024-03-29T23:03:42;12.25;;;3.30;;
37131;SDS011;23035;50.032;21.978;2024-03-29T23:08:46;7.07;;;3.30;;
37131;SDS011;23035;50.032;21.978;2024-03-29T23:13:49;11.30;;;3.67;;
37131;SDS011;23035;50.032;21.978;2024-03-29T23:18:54;12.43;;;3.67;;
37131;SDS011;23035;50.032;21.978;2024-03-29T23:23:58;9.27;;;3.40;;
37131;SDS011;23035;50.032;21.978;2024-03-29T23:29:01;11.43;;;3.08;;
37131;SDS011;23035;50.032;21.978;2024-03-29T23:34:06;11.25;;;3.33;;
37131;SDS011;23035;50.032;21.978;2024-03-29T23:39:09;10.45;;;3.28;;
37131;SDS011;23035;50.032;21.978;2024-03-29T23:44:13;11.85;;;3.10;;
37131;SDS011;23035;50.032;21.978;2024-03-29T23:49:18;17.13;;;3.63;;
37131;SDS011;23035;50.032;21.978;2024-03-29T23:54:21;14.02;;;3.22;;
37131;SDS011;23035;50.032;21.978;2024-03-29T23:59:24;8.38;;;2.85;;
